createdAt,value
2018-06-23T00:00:56.863Z,99.90
2018-06-23T00:03:25.340Z,99.90
2018-06-23T00:05:54.105Z,99.90
2018-06-23T00:08:22.602Z,99.90
2018-06-23T00:10:51.139Z,99.90
2018-06-23T00:13:19.601Z,99.90
2018-06-23T00:15:48.056Z,99.90
2018-06-23T00:18:16.610Z,99.90
2018-06-23T00:20:45.054Z,99.90
2018-06-23T00:23:13.508Z,99.90
2018-06-23T00:25:47.306Z,99.90
2018-06-23T00:28:15.830Z,99.90
2018-06-23T00:30:44.290Z,99.90
2018-06-23T00:33:12.854Z,99.90
2018-06-23T00:35:41.367Z,99.90
2018-06-23T00:38:09.879Z,99.90
2018-06-23T00:40:38.436Z,99.90
2018-06-23T00:43:06.916Z,99.90
2018-06-23T00:45:35.404Z,99.90
2018-06-23T00:48:03.894Z,99.90
2018-06-23T00:50:32.396Z,99.90
2018-06-23T00:53:00.805Z,99.90
2018-06-23T00:55:29.359Z,99.90
2018-06-23T00:57:57.810Z,99.90
2018-06-23T01:00:26.215Z,99.90
2018-06-23T01:02:54.644Z,99.90
2018-06-23T01:05:23.069Z,99.90
2018-06-23T01:07:51.478Z,99.90
2018-06-23T01:10:19.897Z,99.90
2018-06-23T01:12:48.632Z,99.90
2018-06-23T01:15:17.123Z,99.90
2018-06-23T01:17:45.680Z,99.90
2018-06-23T01:20:14.186Z,99.90
2018-06-23T01:22:42.720Z,99.90
2018-06-23T01:25:11.153Z,99.90
2018-06-23T01:27:39.580Z,99.90
2018-06-23T01:30:08.648Z,99.90
2018-06-23T01:32:37.091Z,99.90
2018-06-23T01:35:05.560Z,99.90
2018-06-23T01:37:34.030Z,99.90
2018-06-23T01:40:02.471Z,99.90
2018-06-23T01:42:31.048Z,99.90
2018-06-23T01:44:59.492Z,99.90
2018-06-23T01:47:27.933Z,99.90
2018-06-23T01:49:56.349Z,99.90
2018-06-23T01:52:24.805Z,99.90
2018-06-23T01:54:53.242Z,99.90
2018-06-23T01:57:21.680Z,99.90
2018-06-23T01:59:50.148Z,99.90
2018-06-23T02:02:18.652Z,99.90
2018-06-23T02:04:47.146Z,99.90
2018-06-23T02:07:15.557Z,99.90
2018-06-23T02:09:44.030Z,99.90
2018-06-23T02:12:12.553Z,99.90
2018-06-23T02:14:46.457Z,99.90
2018-06-23T02:17:20.300Z,99.90
2018-06-23T02:19:54.102Z,99.90
2018-06-23T02:22:27.773Z,99.90
2018-06-23T02:25:01.442Z,99.90
2018-06-23T02:27:35.197Z,99.90
2018-06-23T02:30:08.906Z,99.90
2018-06-23T02:32:43.514Z,99.90
2018-06-23T02:35:12.068Z,99.90
2018-06-23T02:37:40.517Z,99.90
2018-06-23T02:40:09.030Z,99.90
2018-06-23T02:42:37.458Z,99.90
2018-06-23T02:45:06.656Z,99.90
2018-06-23T02:47:35.250Z,99.90
2018-06-23T02:50:03.780Z,99.90
2018-06-23T02:52:32.509Z,99.90
2018-06-23T02:55:01.258Z,99.90
2018-06-23T02:57:29.927Z,99.90
2018-06-23T02:59:58.388Z,99.90
2018-06-23T03:02:26.895Z,99.90
2018-06-23T03:04:55.863Z,99.90
2018-06-23T03:07:24.403Z,99.90
2018-06-23T03:09:52.847Z,99.90
2018-06-23T03:12:21.305Z,99.90
2018-06-23T03:14:49.805Z,99.90
2018-06-23T03:17:19.357Z,99.90
2018-06-23T03:19:49.182Z,99.90
2018-06-23T03:22:17.812Z,99.90
2018-06-23T03:24:46.297Z,99.90
2018-06-23T03:27:15.049Z,99.90
2018-06-23T03:32:12.291Z,99.90
2018-06-23T03:34:40.871Z,99.90
2018-06-23T03:37:09.319Z,99.90
2018-06-23T03:39:37.835Z,99.90
2018-06-23T03:42:06.455Z,99.90
2018-06-23T03:44:34.936Z,99.90
2018-06-23T03:47:03.555Z,99.90
2018-06-23T03:49:32.057Z,99.90
2018-06-23T03:52:00.475Z,99.90
2018-06-23T03:54:28.862Z,99.90
2018-06-23T03:56:57.281Z,99.90
2018-06-23T03:59:25.682Z,99.90
2018-06-23T04:01:54.094Z,99.90
2018-06-23T04:04:22.497Z,99.90
2018-06-23T04:06:50.954Z,99.90
2018-06-23T04:09:19.413Z,99.90
2018-06-23T04:11:47.827Z,99.90
2018-06-23T04:14:16.267Z,99.90
2018-06-23T04:16:44.760Z,99.90
2018-06-23T04:19:13.226Z,99.90
2018-06-23T04:21:41.661Z,99.90
2018-06-23T04:24:10.310Z,99.90
2018-06-23T04:29:06.858Z,99.90
2018-06-23T04:31:35.257Z,99.90
2018-06-23T04:34:04.550Z,99.90
2018-06-23T04:36:32.964Z,99.90
2018-06-23T04:39:01.373Z,99.90
2018-06-23T04:41:29.821Z,99.90
2018-06-23T04:43:58.213Z,99.90
2018-06-23T04:46:26.605Z,99.90
2018-06-23T04:48:55.054Z,99.90
2018-06-23T04:51:23.488Z,99.90
2018-06-23T04:53:51.959Z,99.90
2018-06-23T04:56:20.381Z,99.90
2018-06-23T04:58:48.834Z,99.90
2018-06-23T05:01:17.283Z,99.90
2018-06-23T05:03:45.995Z,99.90
2018-06-23T05:06:14.506Z,99.90
2018-06-23T05:08:42.929Z,99.90
2018-06-23T05:11:11.408Z,99.90
2018-06-23T05:13:39.873Z,99.90
2018-06-23T05:16:08.313Z,99.90
2018-06-23T05:18:36.724Z,99.90
2018-06-23T05:21:05.176Z,99.90
2018-06-23T05:23:33.677Z,99.90
2018-06-23T05:26:02.185Z,99.90
2018-06-23T05:28:30.623Z,99.90
2018-06-23T05:30:59.023Z,99.90
2018-06-23T05:33:27.433Z,99.90
2018-06-23T05:35:55.848Z,99.90
2018-06-23T05:38:24.383Z,99.90
2018-06-23T05:40:52.841Z,99.90
2018-06-23T05:43:21.473Z,99.90
2018-06-23T05:45:49.906Z,99.90
2018-06-23T05:48:18.360Z,99.90
2018-06-23T05:50:46.802Z,99.90
2018-06-23T05:53:15.257Z,99.00
2018-06-23T05:55:43.732Z,99.00
2018-06-23T05:58:12.145Z,98.80
2018-06-23T06:00:40.726Z,98.40
2018-06-23T06:03:09.179Z,97.50
2018-06-23T06:05:37.622Z,97.20
2018-06-23T06:08:06.046Z,97.20
2018-06-23T06:10:34.437Z,97.00
2018-06-23T06:13:02.900Z,97.30
2018-06-23T06:15:31.398Z,96.20
2018-06-23T06:17:59.916Z,95.90
2018-06-23T06:22:56.718Z,96.20
2018-06-23T06:25:25.188Z,95.60
2018-06-23T06:27:53.650Z,95.20
2018-06-23T06:30:22.108Z,94.90
2018-06-23T06:32:50.588Z,94.80
2018-06-23T06:35:19.029Z,94.30
2018-06-23T06:37:47.569Z,93.90
2018-06-23T06:40:16.035Z,93.90
2018-06-23T06:42:44.539Z,93.30
2018-06-23T06:45:12.997Z,92.50
2018-06-23T06:47:41.517Z,92.30
2018-06-23T06:50:09.929Z,92.80
2018-06-23T06:52:38.653Z,91.70
2018-06-23T06:55:07.249Z,90.60
2018-06-23T06:57:35.783Z,88.80
2018-06-23T07:00:04.953Z,90.30
2018-06-23T07:02:33.460Z,90.10
2018-06-23T07:05:02.754Z,90.00
2018-06-23T07:07:31.299Z,90.50
2018-06-23T07:09:59.835Z,91.80
2018-06-23T07:12:28.310Z,92.60
2018-06-23T07:14:56.813Z,93.10
2018-06-23T07:17:25.402Z,92.70
2018-06-23T07:19:53.835Z,91.30
2018-06-23T07:22:22.295Z,90.20
2018-06-23T07:24:50.736Z,88.40
2018-06-23T07:27:19.180Z,87.90
2018-06-23T07:29:47.640Z,90.80
2018-06-23T07:32:16.084Z,88.40
2018-06-23T07:34:44.605Z,86.30
2018-06-23T07:37:13.057Z,85.50
2018-06-23T07:39:41.697Z,83.90
2018-06-23T07:42:10.293Z,82.90
2018-06-23T07:44:38.760Z,84.20
2018-06-23T07:47:07.396Z,81.20
2018-06-23T07:49:35.859Z,80.70
2018-06-23T07:52:04.348Z,81.90
2018-06-23T07:54:32.904Z,85.40
2018-06-23T07:57:01.484Z,82.90
2018-06-23T07:59:30.133Z,82.80
2018-06-23T08:01:58.631Z,82.60
2018-06-23T08:04:27.200Z,81.90
2018-06-23T08:06:55.770Z,82.30
2018-06-23T08:09:24.349Z,82.90
2018-06-23T08:11:59.533Z,84.20
2018-06-23T08:14:28.073Z,86.60
2018-06-23T08:16:56.609Z,86.60
2018-06-23T08:19:25.161Z,86.40
2018-06-23T08:21:53.689Z,88.90
2018-06-23T08:24:22.204Z,89.60
2018-06-23T08:26:50.710Z,90.10
2018-06-23T08:29:19.324Z,90.10
2018-06-23T08:31:47.910Z,90.50
2018-06-23T08:34:16.538Z,89.70
2018-06-23T08:36:45.066Z,87.50
2018-06-23T08:39:13.584Z,89.20
2018-06-23T08:41:42.174Z,88.70
2018-06-23T08:44:10.650Z,86.50
2018-06-23T08:46:39.827Z,81.00
2018-06-23T08:49:13.368Z,79.60
2018-06-23T08:51:42.095Z,80.00
2018-06-23T08:54:10.548Z,83.60
2018-06-23T08:56:39.074Z,84.20
2018-06-23T08:59:07.539Z,84.30
2018-06-23T09:01:36.003Z,83.00
2018-06-23T09:04:04.574Z,82.70
2018-06-23T09:06:33.044Z,85.00
2018-06-23T09:09:01.998Z,85.70
2018-06-23T09:11:30.574Z,86.20
2018-06-23T09:13:59.169Z,82.20
2018-06-23T09:16:27.859Z,80.00
2018-06-23T09:18:56.427Z,82.20
2018-06-23T09:21:24.945Z,85.00
2018-06-23T09:23:53.605Z,85.30
2018-06-23T09:26:22.191Z,85.80
2018-06-23T09:28:50.691Z,86.90
2018-06-23T09:31:19.279Z,85.90
2018-06-23T09:33:47.821Z,87.40
2018-06-23T09:36:16.317Z,88.00
2018-06-23T09:38:45.046Z,87.00
2018-06-23T09:41:13.511Z,87.20
2018-06-23T09:43:41.988Z,86.70
2018-06-23T09:46:10.651Z,87.60
2018-06-23T09:48:39.292Z,87.10
2018-06-23T09:51:07.874Z,85.50
2018-06-23T09:53:36.401Z,86.80
2018-06-23T09:56:04.975Z,86.90
2018-06-23T09:58:33.628Z,87.10
2018-06-23T10:01:02.228Z,86.80
2018-06-23T10:03:30.807Z,86.80
2018-06-23T10:05:59.330Z,85.00
2018-06-23T10:08:27.871Z,84.50
2018-06-23T10:10:56.381Z,83.20
2018-06-23T10:13:24.984Z,82.40
2018-06-23T10:15:53.558Z,81.90
2018-06-23T10:18:22.023Z,82.10
2018-06-23T10:20:50.566Z,83.00
2018-06-23T10:23:19.140Z,84.30
2018-06-23T10:25:47.670Z,82.60
2018-06-23T10:28:16.338Z,82.90
2018-06-23T10:30:44.840Z,82.90
2018-06-23T10:33:13.404Z,81.90
2018-06-23T10:38:10.353Z,80.90
2018-06-23T10:40:39.094Z,81.90
2018-06-23T10:43:07.610Z,80.70
2018-06-23T10:45:36.165Z,80.00
2018-06-23T10:48:04.687Z,80.90
2018-06-23T10:50:33.207Z,82.60
2018-06-23T10:53:01.839Z,86.00
2018-06-23T10:55:30.382Z,85.90
2018-06-23T10:57:58.897Z,87.10
2018-06-23T11:00:27.578Z,85.30
2018-06-23T11:02:56.101Z,85.40
2018-06-23T11:05:24.574Z,84.80
2018-06-23T11:07:53.085Z,85.20
2018-06-23T11:10:21.600Z,83.10
2018-06-23T11:12:50.180Z,84.10
2018-06-23T11:15:18.751Z,82.30
2018-06-23T11:17:47.247Z,81.40
2018-06-23T11:20:15.925Z,78.00
2018-06-23T11:22:44.423Z,76.10
2018-06-23T11:25:12.899Z,78.10
2018-06-23T11:27:41.474Z,77.80
2018-06-23T11:30:20.263Z,71.90
2018-06-23T11:32:48.815Z,69.50
2018-06-23T11:35:17.337Z,67.30
2018-06-23T11:37:45.918Z,70.10
2018-06-23T11:40:14.469Z,69.30
2018-06-23T11:42:42.892Z,70.20
2018-06-23T11:45:11.355Z,69.20
2018-06-23T11:47:39.860Z,67.50
2018-06-23T11:50:08.412Z,65.80
2018-06-23T11:52:37.053Z,68.00
2018-06-23T11:55:05.751Z,67.60
2018-06-23T11:57:34.264Z,70.80
2018-06-23T12:00:02.886Z,70.80
2018-06-23T12:02:31.427Z,70.80
2018-06-23T12:05:00.214Z,70.50
2018-06-23T12:07:28.939Z,69.70
2018-06-23T12:09:57.726Z,65.30
2018-06-23T12:12:26.256Z,60.50
2018-06-23T12:14:54.912Z,58.20
2018-06-23T12:17:23.435Z,57.90
2018-06-23T12:19:51.907Z,58.40
2018-06-23T12:22:20.377Z,55.60
2018-06-23T12:24:48.870Z,54.50
2018-06-23T12:27:17.368Z,56.30
2018-06-23T12:29:45.884Z,59.60
2018-06-23T12:32:14.436Z,61.10
2018-06-23T12:34:42.876Z,64.10
2018-06-23T12:37:11.322Z,64.90
2018-06-23T12:39:39.911Z,59.30
2018-06-23T12:42:08.386Z,57.30
2018-06-23T12:44:36.853Z,57.00
2018-06-23T12:47:05.670Z,59.40
2018-06-23T12:49:34.194Z,61.30
2018-06-23T12:52:02.647Z,63.40
2018-06-23T12:54:31.464Z,60.90
2018-06-23T12:57:00.411Z,58.80
2018-06-23T12:59:28.940Z,56.90
2018-06-23T13:01:57.431Z,58.70
2018-06-23T13:04:25.988Z,60.60
2018-06-23T13:06:54.459Z,60.70
2018-06-23T13:09:23.032Z,62.30
2018-06-23T13:11:51.575Z,60.00
2018-06-23T13:14:20.186Z,60.70
2018-06-23T13:16:48.725Z,60.40
2018-06-23T13:19:17.157Z,57.90
2018-06-23T13:21:45.779Z,58.30
2018-06-23T13:24:14.272Z,61.10
2018-06-23T13:26:42.767Z,62.80
2018-06-23T13:29:11.200Z,62.00
2018-06-23T13:31:39.723Z,59.50
2018-06-23T13:34:08.288Z,60.60
2018-06-23T13:36:36.947Z,63.50
2018-06-23T13:39:07.947Z,61.00
2018-06-23T13:41:36.649Z,58.40
2018-06-23T13:44:05.281Z,57.00
2018-06-23T13:46:33.867Z,56.90
2018-06-23T13:49:02.631Z,58.50
2018-06-23T13:51:31.084Z,58.60
2018-06-23T13:53:59.615Z,60.30
2018-06-23T13:56:28.139Z,59.70
2018-06-23T13:58:56.625Z,60.00
2018-06-23T14:01:25.144Z,62.50
2018-06-23T14:03:53.605Z,57.40
2018-06-23T14:06:22.141Z,58.40
2018-06-23T14:08:50.584Z,58.40
2018-06-23T14:11:19.079Z,59.30
2018-06-23T14:13:47.710Z,58.60
2018-06-23T14:16:16.374Z,57.70
2018-06-23T14:18:44.928Z,57.30
2018-06-23T14:21:13.456Z,57.20
2018-06-23T14:23:41.981Z,57.30
2018-06-23T14:26:10.471Z,58.00
2018-06-23T14:28:39.003Z,58.60
2018-06-23T14:31:07.577Z,58.40
2018-06-23T14:33:36.072Z,58.00
2018-06-23T14:36:04.621Z,57.50
2018-06-23T14:38:33.149Z,59.00
2018-06-23T14:41:01.656Z,59.20
2018-06-23T14:43:30.117Z,60.80
2018-06-23T14:45:58.578Z,63.00
2018-06-23T14:48:27.057Z,63.30
2018-06-23T14:50:55.528Z,63.50
2018-06-23T14:53:24.063Z,65.00
2018-06-23T14:55:52.605Z,66.90
2018-06-23T14:58:21.084Z,67.30
2018-06-23T15:00:49.584Z,68.10
2018-06-23T15:03:18.116Z,68.60
2018-06-23T15:05:46.765Z,69.00
2018-06-23T15:08:26.427Z,68.20
2018-06-23T15:11:06.358Z,68.00
2018-06-23T15:13:34.941Z,67.10
2018-06-23T15:16:03.767Z,66.70
2018-06-23T15:18:32.391Z,65.30
2018-06-23T15:21:00.986Z,65.40
2018-06-23T15:23:29.575Z,64.60
2018-06-23T15:25:58.337Z,65.10
2018-06-23T15:28:26.853Z,63.70
2018-06-23T15:30:55.604Z,61.90
2018-06-23T15:33:24.263Z,62.90
2018-06-23T15:35:53.058Z,63.70
2018-06-23T15:38:21.672Z,64.90
2018-06-23T15:43:18.445Z,64.90
2018-06-23T15:45:47.284Z,65.50
2018-06-23T15:48:15.877Z,65.70
2018-06-23T15:50:44.346Z,66.60
2018-06-23T15:53:12.857Z,65.90
2018-06-23T15:55:47.903Z,66.30
2018-06-23T15:58:16.361Z,66.80
2018-06-23T16:00:44.906Z,66.30
2018-06-23T16:03:13.463Z,65.60
2018-06-23T16:05:41.941Z,65.30
2018-06-23T16:08:10.423Z,65.90
2018-06-23T16:10:38.891Z,65.10
2018-06-23T16:13:07.387Z,65.90
2018-06-23T16:15:35.940Z,65.90
2018-06-23T16:18:04.750Z,65.50
2018-06-23T16:20:33.352Z,66.60
2018-06-23T16:23:01.968Z,66.60
2018-06-23T16:25:30.482Z,66.90
2018-06-23T16:27:58.982Z,67.60
2018-06-23T16:30:27.454Z,68.20
2018-06-23T16:32:55.994Z,68.50
2018-06-23T16:35:25.218Z,69.90
2018-06-23T16:37:53.277Z,69.70
2018-06-23T16:40:21.775Z,70.00
2018-06-23T16:42:50.283Z,70.80
2018-06-23T16:45:18.773Z,70.90
2018-06-23T16:47:47.238Z,69.50
2018-06-23T16:50:15.717Z,70.30
2018-06-23T16:52:44.239Z,70.70
2018-06-23T16:55:12.761Z,71.60
2018-06-23T16:57:41.338Z,71.50
2018-06-23T17:00:10.188Z,72.50
2018-06-23T17:02:38.777Z,73.20
2018-06-23T17:05:07.463Z,73.30
2018-06-23T17:07:36.023Z,73.90
2018-06-23T17:10:04.648Z,74.40
2018-06-23T17:12:33.196Z,75.00
2018-06-23T17:15:01.790Z,76.00
2018-06-23T17:17:30.317Z,76.40
2018-06-23T17:19:58.814Z,77.60
2018-06-23T17:22:27.393Z,78.30
2018-06-23T17:24:55.890Z,78.90
2018-06-23T17:27:24.539Z,79.80
2018-06-23T17:29:52.991Z,80.60
2018-06-23T17:32:21.451Z,81.20
2018-06-23T17:34:50.019Z,81.40
2018-06-23T17:37:18.646Z,82.10
2018-06-23T17:39:47.230Z,82.60
2018-06-23T17:42:15.903Z,83.30
2018-06-23T17:44:44.513Z,83.90
2018-06-23T17:47:13.133Z,84.40
2018-06-23T17:49:41.914Z,85.80
2018-06-23T17:52:16.926Z,86.90
2018-06-23T17:54:45.522Z,86.90
2018-06-23T17:57:14.177Z,88.30
2018-06-23T17:59:42.665Z,87.30
2018-06-23T18:02:11.391Z,87.80
2018-06-23T18:04:39.974Z,88.30
2018-06-23T18:07:08.492Z,88.90
2018-06-23T18:09:37.106Z,89.70
2018-06-23T18:12:05.903Z,90.10
2018-06-23T18:14:34.368Z,90.30
2018-06-23T18:17:02.915Z,90.50
2018-06-23T18:19:31.619Z,90.50
2018-06-23T18:22:00.340Z,90.70
2018-06-23T18:24:29.159Z,91.00
2018-06-23T18:26:59.032Z,91.40
2018-06-23T18:29:28.438Z,91.40
2018-06-23T18:31:57.030Z,92.10
2018-06-23T18:34:26.819Z,91.70
2018-06-23T18:36:55.359Z,91.80
2018-06-23T18:39:23.909Z,91.90
2018-06-23T18:41:53.472Z,92.20
2018-06-23T18:44:22.016Z,92.30
2018-06-23T18:46:50.567Z,92.60
2018-06-23T18:49:19.150Z,92.80
2018-06-23T18:51:48.583Z,92.90
2018-06-23T18:54:17.060Z,93.00
2018-06-23T18:56:45.686Z,93.30
2018-06-23T18:59:14.265Z,93.30
2018-06-23T19:01:42.816Z,93.60
2018-06-23T19:04:11.304Z,93.90
2018-06-23T19:06:39.762Z,94.00
2018-06-23T19:09:11.025Z,94.10
2018-06-23T19:11:39.703Z,94.10
2018-06-23T19:14:08.655Z,94.30
2018-06-23T19:16:37.292Z,94.40
2018-06-23T19:19:06.779Z,94.60
2018-06-23T19:24:05.050Z,94.90
2018-06-23T19:26:33.875Z,95.00
2018-06-23T19:29:02.611Z,95.20
2018-06-23T19:31:31.171Z,95.50
2018-06-23T19:33:59.787Z,95.40
2018-06-23T19:36:28.371Z,95.60
2018-06-23T19:38:56.836Z,95.70
2018-06-23T19:41:27.732Z,95.80
2018-06-23T19:43:56.380Z,96.30
2018-06-23T19:46:24.875Z,96.10
2018-06-23T19:48:53.462Z,96.30
2018-06-23T19:53:50.477Z,96.50
2018-06-23T19:56:19.127Z,96.60
2018-06-23T19:58:47.666Z,96.70
2018-06-23T20:01:16.287Z,96.70
2018-06-23T20:03:44.867Z,96.80
2018-06-23T20:06:13.504Z,97.10
2018-06-23T20:08:42.066Z,97.10
2018-06-23T20:11:10.654Z,97.40
2018-06-23T20:13:39.371Z,97.60
2018-06-23T20:16:08.000Z,97.90
2018-06-23T20:18:36.530Z,98.30
2018-06-23T20:21:05.075Z,98.50
2018-06-23T20:23:33.662Z,98.70
2018-06-23T20:26:02.242Z,99.00
2018-06-23T20:28:30.884Z,99.20
2018-06-23T20:30:59.549Z,99.30
2018-06-23T20:33:28.248Z,99.40
2018-06-23T20:35:56.877Z,99.50
2018-06-23T20:38:25.601Z,99.70
2018-06-23T20:40:54.315Z,99.40
2018-06-23T20:43:22.894Z,99.40
2018-06-23T20:45:51.464Z,99.60
2018-06-23T20:48:20.036Z,99.30
2018-06-23T20:50:48.647Z,99.70
2018-06-23T20:53:17.276Z,98.60
2018-06-23T20:55:45.923Z,99.10
2018-06-23T20:58:15.492Z,99.20
2018-06-23T21:00:44.341Z,99.10
2018-06-23T21:03:12.988Z,99.00
2018-06-23T21:05:41.501Z,98.80
2018-06-23T21:08:10.172Z,98.50
2018-06-23T21:10:41.353Z,98.50
2018-06-23T21:13:10.237Z,98.10
2018-06-23T21:15:38.999Z,98.10
2018-06-23T21:18:07.915Z,98.10
2018-06-23T21:20:36.538Z,98.00
2018-06-23T21:23:05.296Z,98.20
2018-06-23T21:25:34.092Z,98.50
2018-06-23T21:28:02.818Z,98.70
2018-06-23T21:30:31.920Z,98.70
2018-06-23T21:33:00.680Z,98.80
2018-06-23T21:35:29.311Z,98.80
2018-06-23T21:37:57.995Z,98.80
2018-06-23T21:40:26.665Z,99.10
2018-06-23T21:42:55.441Z,99.20
2018-06-23T21:45:24.204Z,99.00
2018-06-23T21:47:52.823Z,99.10
2018-06-23T21:50:21.383Z,99.10
2018-06-23T21:52:49.955Z,98.50
2018-06-23T21:55:18.604Z,98.50
2018-06-23T21:57:47.099Z,98.40
2018-06-23T22:00:37.312Z,98.40
2018-06-23T22:03:07.256Z,98.60
2018-06-23T22:05:35.825Z,98.50
2018-06-23T22:08:04.717Z,98.60
2018-06-23T22:10:33.184Z,98.70
2018-06-23T22:13:01.697Z,98.60
2018-06-23T22:15:30.295Z,98.90
2018-06-23T22:17:58.809Z,98.90
2018-06-23T22:20:27.473Z,99.00
2018-06-23T22:22:56.015Z,99.00
2018-06-23T22:25:24.500Z,99.10
2018-06-23T22:27:52.957Z,99.20
2018-06-23T22:30:22.070Z,99.20
2018-06-23T22:32:50.782Z,99.20
2018-06-23T22:35:19.709Z,99.30
2018-06-23T22:37:48.246Z,99.50
2018-06-23T22:40:16.734Z,99.30
2018-06-23T22:42:45.193Z,99.30
2018-06-23T22:45:13.663Z,99.20
2018-06-23T22:47:42.172Z,99.40
2018-06-23T22:50:11.125Z,99.40
2018-06-23T22:52:39.705Z,99.40
2018-06-23T22:55:09.263Z,99.80
2018-06-23T22:57:37.768Z,99.20
2018-06-23T23:00:09.253Z,99.50
2018-06-23T23:02:37.724Z,99.40
2018-06-23T23:05:06.654Z,99.50
2018-06-23T23:07:35.146Z,99.60
2018-06-23T23:10:03.946Z,99.80
2018-06-23T23:12:32.399Z,99.90
2018-06-23T23:15:00.839Z,99.90
2018-06-23T23:17:29.390Z,99.90
2018-06-23T23:19:57.865Z,99.90
2018-06-23T23:22:26.352Z,99.90
2018-06-23T23:24:54.945Z,99.90
2018-06-23T23:27:23.504Z,99.90
2018-06-23T23:29:51.995Z,99.90
2018-06-23T23:32:20.495Z,99.80
2018-06-23T23:34:49.141Z,99.90
2018-06-23T23:37:17.631Z,99.80
2018-06-23T23:39:46.089Z,99.80
2018-06-23T23:42:14.482Z,99.80
2018-06-23T23:44:42.879Z,99.80
2018-06-23T23:47:11.378Z,99.90
2018-06-23T23:49:39.810Z,99.90
2018-06-23T23:52:08.942Z,99.90
2018-06-23T23:54:37.378Z,99.90
2018-06-23T23:57:05.792Z,99.90
2018-06-23T23:59:34.200Z,99.90
